createdAt,value
2022-08-09T00:00:00.528Z,22.18
2022-08-09T00:02:30.959Z,22.20
2022-08-09T00:05:03.520Z,22.20
2022-08-09T00:07:45.259Z,22.18
2022-08-09T00:10:18.186Z,22.19
2022-08-09T00:12:52.358Z,22.18
2022-08-09T00:15:20.232Z,22.19
2022-08-09T00:18:10.595Z,22.19
2022-08-09T00:20:41.527Z,22.20
2022-08-09T00:23:55.161Z,22.18
2022-08-09T00:26:04.936Z,22.18
2022-08-09T00:28:32.257Z,22.17
2022-08-09T00:31:30.251Z,22.18
2022-08-09T00:33:51.897Z,22.20
2022-08-09T00:36:19.673Z,22.20
2022-08-09T00:38:46.711Z,22.20
2022-08-09T00:44:14.815Z,22.16
2022-08-09T00:44:15.501Z,22.18
2022-08-09T00:46:57.871Z,22.17
2022-08-09T00:49:36.542Z,22.13
2022-08-09T00:52:05.918Z,22.09
2022-08-09T00:54:36.342Z,22.11
2022-08-09T00:57:08.829Z,22.13
2022-08-09T00:59:45.934Z,22.13
2022-08-09T01:02:20.821Z,22.13
2022-08-09T01:05:14.132Z,22.06
2022-08-09T01:08:01.000Z,22.05
2022-08-09T02:19:03.884Z,21.70
2022-08-09T02:21:38.421Z,21.69
2022-08-09T02:24:11.372Z,21.68
2022-08-09T02:26:58.616Z,21.64
2022-08-09T02:29:27.919Z,21.61
2022-08-09T02:32:00.613Z,21.64
2022-08-09T02:34:40.802Z,21.61
2022-08-09T02:37:20.963Z,21.63
2022-08-09T02:40:01.322Z,21.62
2022-08-09T02:42:35.267Z,21.67
2022-08-09T02:45:26.621Z,21.68
2022-08-09T02:47:58.977Z,21.62
2022-08-09T02:50:29.714Z,21.58
2022-08-09T02:53:25.997Z,21.54
2022-08-09T02:55:58.630Z,21.53
2022-08-09T02:58:35.826Z,21.56
2022-08-09T03:01:08.163Z,21.55
2022-08-09T03:04:12.726Z,21.53
2022-08-09T03:06:25.199Z,21.54
2022-08-09T03:08:54.878Z,21.55
2022-08-09T03:12:04.896Z,21.58
2022-08-09T03:14:10.907Z,21.59
2022-08-09T03:16:41.824Z,21.57
2022-08-09T03:19:16.742Z,21.55
2022-08-09T03:21:59.782Z,21.54
2022-08-09T03:24:42.231Z,21.53
2022-08-09T03:27:17.236Z,21.55
2022-08-09T03:29:57.681Z,21.61
2022-08-09T03:32:32.452Z,21.61
2022-08-09T03:35:04.920Z,21.64
2022-08-09T03:37:54.294Z,21.60
2022-08-09T03:40:23.401Z,21.59
2022-08-09T03:42:51.616Z,21.62
2022-08-09T03:46:03.336Z,21.61
2022-08-09T03:48:05.380Z,21.63
2022-08-09T03:50:33.726Z,21.67
2022-08-09T03:53:03.248Z,21.68
2022-08-09T03:55:30.241Z,21.64
2022-08-09T03:58:09.792Z,21.66
2022-08-09T04:00:44.564Z,21.72
2022-08-09T04:03:15.257Z,21.72
2022-08-09T04:05:51.102Z,21.73
2022-08-09T04:08:17.723Z,21.72
2022-08-09T04:10:44.710Z,21.65
2022-08-09T04:13:18.519Z,21.67
2022-08-09T04:16:20.606Z,21.72
2022-08-09T04:18:32.330Z,21.64
2022-08-09T04:20:58.934Z,21.61
2022-08-09T04:23:26.386Z,21.63
2022-08-09T04:25:54.383Z,21.68
2022-08-09T04:28:33.941Z,21.72
2022-08-09T04:31:07.738Z,21.73
2022-08-09T04:33:47.423Z,21.72
2022-08-09T04:36:28.725Z,21.74
2022-08-09T04:38:57.430Z,21.76
2022-08-09T04:41:33.283Z,21.76
2022-08-09T04:44:07.052Z,21.72
2022-08-09T04:46:57.048Z,21.71
2022-08-09T04:49:40.430Z,21.73
2022-08-09T04:52:11.018Z,21.74
2022-08-09T04:54:37.952Z,21.75
2022-08-09T04:57:04.672Z,21.75
2022-08-09T04:59:36.023Z,21.75
2022-08-09T05:02:03.307Z,21.76
2022-08-09T05:04:30.949Z,21.76
2022-08-09T05:06:58.362Z,21.77
2022-08-09T05:09:25.270Z,21.76
2022-08-09T05:12:09.594Z,21.75
2022-08-09T05:14:37.990Z,21.78
2022-08-09T05:18:36.954Z,21.77
2022-08-09T05:19:56.569Z,21.76
2022-08-09T05:22:36.154Z,21.74
2022-08-09T05:25:10.817Z,21.73
2022-08-09T05:27:39.015Z,21.75
2022-08-09T05:30:14.315Z,21.77
2022-08-09T05:32:43.455Z,21.80
2022-08-09T05:35:11.293Z,21.78
2022-08-09T05:37:47.477Z,21.78
2022-08-09T05:40:15.397Z,21.80
2022-08-09T05:42:42.811Z,21.78
2022-08-09T05:45:10.547Z,21.80
2022-08-09T05:47:50.837Z,21.82
2022-08-09T05:50:25.101Z,21.84
2022-08-09T05:53:01.972Z,21.85
2022-08-09T05:55:28.804Z,21.86
2022-08-09T05:57:58.491Z,21.86
2022-08-09T06:00:26.758Z,21.87
2022-08-09T06:02:57.262Z,21.86
2022-08-09T06:05:54.834Z,21.87
2022-08-09T06:08:24.471Z,21.89
2022-08-09T06:10:55.680Z,21.89
2022-08-09T06:13:23.764Z,21.90
2022-08-09T06:15:51.824Z,21.89
2022-08-09T06:18:24.013Z,21.90
2022-08-09T06:20:57.859Z,21.91
2022-08-09T06:23:58.083Z,21.91
2022-08-09T06:26:15.095Z,21.91
2022-08-09T06:28:59.261Z,21.91
2022-08-09T06:31:31.311Z,21.91
2022-08-09T06:34:06.770Z,21.93
2022-08-09T06:36:34.050Z,21.92
2022-08-09T06:39:02.749Z,21.93
2022-08-09T06:41:58.856Z,21.93
2022-08-09T06:44:22.884Z,21.93
2022-08-09T06:46:55.191Z,21.94
2022-08-09T06:49:44.909Z,21.91
2022-08-09T06:52:09.947Z,21.93
2022-08-09T06:54:38.890Z,21.92
2022-08-09T06:57:08.299Z,21.93
2022-08-09T07:00:51.087Z,21.94
2022-08-09T07:02:21.732Z,21.94
2022-08-09T07:04:56.035Z,21.94
2022-08-09T07:07:59.023Z,21.94
2022-08-09T07:10:24.054Z,21.95
2022-08-09T07:12:57.401Z,21.97
2022-08-09T07:16:38.604Z,21.99
2022-08-09T07:18:11.434Z,22.00
2022-08-09T07:20:43.615Z,22.00
2022-08-09T07:23:19.153Z,22.01
2022-08-09T07:25:47.578Z,22.00
2022-08-09T07:28:26.222Z,21.99
2022-08-09T07:30:55.109Z,22.02
2022-08-09T07:33:21.995Z,22.01
2022-08-09T07:35:54.395Z,22.02
2022-08-09T07:38:23.353Z,22.05
2022-08-09T07:41:08.137Z,22.08
2022-08-09T07:43:41.027Z,22.09
2022-08-09T07:46:19.112Z,22.10
2022-08-09T07:48:46.461Z,22.09
2022-08-09T07:52:04.647Z,22.09
2022-08-09T07:54:12.549Z,22.10
2022-08-09T07:56:49.093Z,22.12
2022-08-09T07:59:25.137Z,22.13
2022-08-09T08:01:53.795Z,22.15
2022-08-09T08:04:20.454Z,22.16
2022-08-09T08:07:00.154Z,22.18
2022-08-09T08:09:42.605Z,22.27
2022-08-09T08:12:27.622Z,22.35
2022-08-09T08:15:07.556Z,22.36
2022-08-09T08:17:52.544Z,22.41
2022-08-09T08:20:29.381Z,22.44
2022-08-09T08:23:03.599Z,22.46
2022-08-09T08:25:46.008Z,22.48
2022-08-09T08:28:18.199Z,22.50
2022-08-09T08:30:58.709Z,22.52
2022-08-09T08:33:25.506Z,22.55
2022-08-09T08:36:07.777Z,22.52
2022-08-09T08:38:35.157Z,22.49
2022-08-09T08:41:05.659Z,22.45
2022-08-09T08:43:33.203Z,22.49
2022-08-09T08:46:33.035Z,22.50
2022-08-09T08:48:53.522Z,22.49
2022-08-09T08:51:22.567Z,22.48
2022-08-09T08:54:03.272Z,22.48
2022-08-09T08:56:34.100Z,22.48
2022-08-09T08:59:19.192Z,22.49
2022-08-09T09:01:56.595Z,22.51
2022-08-09T09:04:37.796Z,22.52
2022-08-09T09:07:15.453Z,22.54
2022-08-09T09:10:02.269Z,22.55
2022-08-09T09:12:34.233Z,22.60
2022-08-09T09:15:03.716Z,22.67
2022-08-09T09:17:48.349Z,22.70
2022-08-09T09:20:21.380Z,22.73
2022-08-09T09:22:53.680Z,22.73
2022-08-09T09:26:03.208Z,22.71
2022-08-09T09:29:02.610Z,22.75
2022-08-09T09:32:01.728Z,22.77
2022-08-09T09:34:18.177Z,22.77
2022-08-09T09:36:51.078Z,22.81
2022-08-09T09:39:25.659Z,22.80
2022-08-09T09:42:24.487Z,22.83
2022-08-09T09:44:59.700Z,22.84
2022-08-09T09:47:28.312Z,22.85
2022-08-09T09:50:14.333Z,22.84
2022-08-09T09:52:56.144Z,22.85
2022-08-09T09:55:32.321Z,22.88
2022-08-09T09:58:16.682Z,22.90
2022-08-09T10:00:58.915Z,22.94
2022-08-09T10:03:59.271Z,22.99
2022-08-09T10:06:42.716Z,23.01
2022-08-09T10:09:22.792Z,23.01
2022-08-09T10:12:11.765Z,23.04
2022-08-09T10:14:47.774Z,23.02
2022-08-09T10:17:40.123Z,23.03
2022-08-09T10:20:06.451Z,23.03
2022-08-09T10:22:42.079Z,23.05
2022-08-09T10:25:12.256Z,23.06
2022-08-09T10:27:57.853Z,23.09
2022-08-09T10:33:29.630Z,23.12
2022-08-09T10:36:11.434Z,23.12
2022-08-09T10:38:55.919Z,23.12
2022-08-09T10:41:26.078Z,23.16
2022-08-09T10:43:59.678Z,23.17
2022-08-09T10:46:34.282Z,23.19
2022-08-09T10:49:25.083Z,23.20
2022-08-09T10:52:36.404Z,23.21
2022-08-09T10:55:26.120Z,23.24
2022-08-09T10:57:55.359Z,23.23
2022-08-09T11:00:35.271Z,23.31
2022-08-09T11:03:18.600Z,23.33
2022-08-09T11:06:15.896Z,23.39
2022-08-09T11:08:47.209Z,23.41
2022-08-09T11:11:16.990Z,23.41
2022-08-09T11:13:50.220Z,23.45
2022-08-09T11:16:37.886Z,23.47
2022-08-09T11:19:08.084Z,23.50
2022-08-09T11:22:16.558Z,23.51
2022-08-09T11:25:04.616Z,23.55
2022-08-09T11:28:08.321Z,23.56
2022-08-09T11:30:32.415Z,23.57
2022-08-09T11:33:17.065Z,23.58
2022-08-09T11:35:50.105Z,23.61
2022-08-09T11:38:33.939Z,23.62
2022-08-09T11:41:16.103Z,23.62
2022-08-09T11:43:47.185Z,23.66
2022-08-09T11:46:26.602Z,23.70
2022-08-09T11:49:00.651Z,23.71
2022-08-09T11:53:00.729Z,23.76
2022-08-09T11:54:27.453Z,23.72
2022-08-09T11:58:00.663Z,23.82
2022-08-09T12:00:31.105Z,23.84
2022-08-09T12:03:00.046Z,23.76
2022-08-09T12:05:47.436Z,23.65
2022-08-09T12:08:21.834Z,23.56
2022-08-09T12:10:53.752Z,23.49
2022-08-09T12:14:08.088Z,23.46
2022-08-09T12:16:37.721Z,23.47
2022-08-09T12:19:08.100Z,23.45
2022-08-09T12:21:39.268Z,23.45
2022-08-09T12:24:24.354Z,23.45
2022-08-09T12:29:09.667Z,23.42
2022-08-09T12:29:52.654Z,23.51
2022-08-09T12:32:27.067Z,23.55
2022-08-09T12:34:59.919Z,23.51
2022-08-09T12:37:44.192Z,23.55
2022-08-09T12:40:19.029Z,23.52
2022-08-09T12:42:46.006Z,23.47
2022-08-09T12:45:34.815Z,23.50
2022-08-09T12:47:59.938Z,23.53
2022-08-09T12:50:27.400Z,23.55
2022-08-09T12:53:08.779Z,23.49
2022-08-09T12:56:11.944Z,23.58
2022-08-09T12:58:24.305Z,23.63
2022-08-09T13:00:55.041Z,23.69
2022-08-09T13:03:57.269Z,23.75
2022-08-09T13:06:34.725Z,23.69
2022-08-09T13:09:09.872Z,23.84
2022-08-09T13:11:42.338Z,23.88
2022-08-09T13:14:41.102Z,23.90
2022-08-09T13:17:15.881Z,23.87
2022-08-09T13:20:10.277Z,23.84
2022-08-09T13:23:01.542Z,23.95
2022-08-09T13:25:19.812Z,24.02
2022-08-09T13:27:48.730Z,24.07
2022-08-09T13:31:11.519Z,24.03
2022-08-09T13:33:16.875Z,24.04
2022-08-09T13:36:24.698Z,24.00
2022-08-09T13:38:57.570Z,24.00
2022-08-09T13:41:58.265Z,24.09
2022-08-09T13:44:08.705Z,23.99
2022-08-09T13:47:16.758Z,23.98
2022-08-09T13:49:27.594Z,23.91
2022-08-09T13:52:09.349Z,23.87
2022-08-09T13:54:41.784Z,23.77
2022-08-09T13:57:36.399Z,23.71
2022-08-09T14:00:02.920Z,23.67
2022-08-09T14:02:29.606Z,23.69
2022-08-09T14:04:59.613Z,23.68
2022-08-09T14:07:30.327Z,23.70
2022-08-09T14:10:17.259Z,23.70
2022-08-09T14:12:55.558Z,23.85
2022-08-09T14:16:09.212Z,23.82
2022-08-09T14:18:19.562Z,23.72
2022-08-09T14:20:46.838Z,23.67
2022-08-09T14:23:20.315Z,23.71
2022-08-09T14:25:52.083Z,23.80
2022-08-09T14:28:19.446Z,23.78
2022-08-09T14:30:47.869Z,23.80
2022-08-09T14:33:20.659Z,23.81
2022-08-09T14:35:52.555Z,23.75
2022-08-09T14:38:19.863Z,23.75
2022-08-09T14:41:02.354Z,23.83
2022-08-09T14:43:46.996Z,23.85
2022-08-09T14:46:54.550Z,23.88
2022-08-09T14:49:02.417Z,23.82
2022-08-09T14:51:29.443Z,23.79
2022-08-09T14:53:56.822Z,23.85
2022-08-09T14:56:26.905Z,24.03
2022-08-09T14:58:56.133Z,23.96
2022-08-09T15:01:23.213Z,23.83
2022-08-09T15:03:49.891Z,23.93
2022-08-09T15:06:16.587Z,24.42
2022-08-09T15:08:46.412Z,24.84
2022-08-09T15:11:24.335Z,24.75
2022-08-09T15:14:01.500Z,24.44
2022-08-09T15:16:31.606Z,24.20
2022-08-09T15:18:59.746Z,24.05
2022-08-09T15:21:56.427Z,24.04
2022-08-09T15:24:23.365Z,23.99
2022-08-09T15:26:53.917Z,23.90
2022-08-09T15:30:57.010Z,23.84
2022-08-09T15:32:28.751Z,23.75
2022-08-09T15:34:54.695Z,23.71
2022-08-09T15:37:37.359Z,23.75
2022-08-09T15:40:22.829Z,23.72
2022-08-09T15:42:53.120Z,23.72
2022-08-09T15:45:29.460Z,23.71
2022-08-09T15:48:05.480Z,23.70
2022-08-09T15:50:43.707Z,23.70
2022-08-09T15:54:02.850Z,23.66
2022-08-09T15:56:20.907Z,23.64
2022-08-09T15:58:44.629Z,23.62
2022-08-09T16:01:13.469Z,23.60
2022-08-09T16:03:41.708Z,23.59
2022-08-09T16:06:29.534Z,23.57
2022-08-09T16:08:56.769Z,23.56
2022-08-09T16:11:28.698Z,23.55
2022-08-09T16:14:05.508Z,23.54
2022-08-09T16:16:34.537Z,23.52
2022-08-09T16:19:04.511Z,23.51
2022-08-09T16:21:31.593Z,23.49
2022-08-09T16:24:02.991Z,23.49
2022-08-09T16:26:34.471Z,23.48
2022-08-09T16:29:12.381Z,23.47
2022-08-09T16:32:17.893Z,23.46
2022-08-09T16:34:28.942Z,23.45
2022-08-09T16:36:56.405Z,23.45
2022-08-09T16:39:25.674Z,23.45
2022-08-09T16:42:03.638Z,23.46
2022-08-09T16:44:32.334Z,23.46
2022-08-09T16:47:04.067Z,23.47
2022-08-09T16:50:32.260Z,23.45
2022-08-09T16:52:33.295Z,23.45
2022-08-09T16:55:00.091Z,23.45
2022-08-09T16:57:26.730Z,23.45
2022-08-09T17:00:14.094Z,23.44
2022-08-09T17:02:41.694Z,23.45
2022-08-09T17:05:11.345Z,23.45
2022-08-09T17:08:46.923Z,23.45
2022-08-09T17:10:27.325Z,23.43
2022-08-09T17:12:55.319Z,23.43
2022-08-09T17:15:58.650Z,23.44
2022-08-09T17:18:10.530Z,23.45
2022-08-09T17:20:44.256Z,23.45
2022-08-09T17:23:17.614Z,23.43
2022-08-09T17:25:52.795Z,23.43
2022-08-09T17:28:19.987Z,23.44
2022-08-09T17:30:47.762Z,23.43
2022-08-09T17:33:22.681Z,23.41
2022-08-09T17:35:50.063Z,23.40
2022-08-09T17:38:31.968Z,23.40
2022-08-09T17:41:02.847Z,23.40
2022-08-09T17:43:34.509Z,23.39
2022-08-09T17:46:06.154Z,23.39
2022-08-09T17:48:40.401Z,23.39
2022-08-09T17:51:19.535Z,23.39
2022-08-09T17:53:52.845Z,23.38
2022-08-09T17:56:27.668Z,23.37
2022-08-09T17:59:01.229Z,23.38
2022-08-09T18:01:57.702Z,23.37
2022-08-09T18:04:18.177Z,23.37
2022-08-09T18:06:54.141Z,23.36
2022-08-09T18:09:22.701Z,23.35
2022-08-09T18:12:14.411Z,23.36
2022-08-09T18:14:37.232Z,23.35
2022-08-09T18:17:19.013Z,23.33
2022-08-09T18:20:56.085Z,23.34
2022-08-09T18:22:50.953Z,23.34
2022-08-09T18:25:18.346Z,23.35
2022-08-09T18:28:02.886Z,23.34
2022-08-09T18:30:42.990Z,23.33
2022-08-09T18:33:16.535Z,23.34
2022-08-09T18:35:59.032Z,23.35
2022-08-09T18:38:27.016Z,23.35
2022-08-09T18:40:55.508Z,23.36
2022-08-09T18:43:23.519Z,23.36
2022-08-09T18:46:50.843Z,23.36
2022-08-09T18:48:37.876Z,23.36
2022-08-09T18:51:04.772Z,23.36
2022-08-09T18:54:00.940Z,23.36
2022-08-09T18:56:27.202Z,23.35
2022-08-09T18:58:55.854Z,23.34
2022-08-09T19:01:23.340Z,23.34
2022-08-09T19:04:00.803Z,23.34
2022-08-09T19:06:33.922Z,23.33
2022-08-09T19:09:02.884Z,23.33
2022-08-09T19:11:38.063Z,23.32
2022-08-09T19:14:06.385Z,23.32
2022-08-09T19:16:37.950Z,23.32
2022-08-09T19:19:23.506Z,23.31
2022-08-09T19:22:06.204Z,23.28
2022-08-09T19:24:38.796Z,23.28
2022-08-09T19:27:21.570Z,23.29
2022-08-09T19:30:25.060Z,23.29
2022-08-09T19:32:36.023Z,23.28
2022-08-09T19:35:04.375Z,23.26
2022-08-09T19:37:41.102Z,23.24
2022-08-09T19:40:19.263Z,23.24
2022-08-09T19:42:48.988Z,23.23
2022-08-09T19:45:16.854Z,23.23
2022-08-09T19:47:44.661Z,23.24
2022-08-09T19:50:50.392Z,23.23
2022-08-09T19:52:59.657Z,23.19
2022-08-09T19:56:02.765Z,23.17
2022-08-09T19:58:17.585Z,23.19
2022-08-09T20:00:56.620Z,23.17
2022-08-09T20:04:27.901Z,23.16
2022-08-09T20:06:23.773Z,23.12
2022-08-09T20:08:55.351Z,23.11
2022-08-09T20:11:26.242Z,23.11
2022-08-09T20:13:54.505Z,23.08
2022-08-09T20:16:36.245Z,23.07
2022-08-09T20:19:49.276Z,23.01
2022-08-09T20:21:56.428Z,23.01
2022-08-09T20:24:29.447Z,22.98
2022-08-09T20:27:02.264Z,22.95
2022-08-09T20:29:37.585Z,22.91
2022-08-09T20:32:33.190Z,22.93
2022-08-09T20:34:57.003Z,22.95
2022-08-09T20:37:24.774Z,22.91
2022-08-09T20:40:17.685Z,22.91
2022-08-09T20:42:38.252Z,22.93
2022-08-09T20:45:59.385Z,22.95
2022-08-09T20:47:52.829Z,22.95
2022-08-09T20:50:48.391Z,22.95
2022-08-09T20:53:22.712Z,22.96
2022-08-09T20:56:01.041Z,22.99
2022-08-09T20:58:32.518Z,22.97
2022-08-09T21:01:02.451Z,22.95
2022-08-09T21:04:07.851Z,22.94
2022-08-09T21:06:35.079Z,22.92
2022-08-09T21:09:02.731Z,22.90
2022-08-09T21:14:17.454Z,22.87
2022-08-09T21:16:45.741Z,22.82
2022-08-09T21:20:17.757Z,22.84
2022-08-09T21:22:00.073Z,22.81
2022-08-09T21:24:32.633Z,22.81
2022-08-09T21:27:10.236Z,22.81
2022-08-09T21:29:49.232Z,22.77
2022-08-09T21:32:18.810Z,22.74
2022-08-09T21:34:49.082Z,22.76
2022-08-09T21:37:18.233Z,22.75
2022-08-09T21:39:45.506Z,22.72
2022-08-09T21:42:17.184Z,22.72
2022-08-09T21:44:44.398Z,22.74
2022-08-09T21:47:17.528Z,22.71
2022-08-09T21:49:45.280Z,22.69
2022-08-09T21:52:16.669Z,22.65
2022-08-09T21:54:50.591Z,22.60
2022-08-09T21:57:37.621Z,22.56
2022-08-09T22:00:16.710Z,22.55
2022-08-09T22:02:43.481Z,22.58
2022-08-09T22:05:22.919Z,22.60
2022-08-09T22:07:52.215Z,22.62
2022-08-09T22:10:23.212Z,22.63
2022-08-09T22:12:51.252Z,22.60
2022-08-09T22:15:20.712Z,22.61
2022-08-09T22:18:00.493Z,22.61
2022-08-09T22:20:31.066Z,22.64
2022-08-09T22:22:58.544Z,22.66
2022-08-09T22:26:08.562Z,22.70
2022-08-09T22:28:12.117Z,22.71
2022-08-09T22:30:39.197Z,22.69
2022-08-09T22:33:17.261Z,22.71
2022-08-09T22:36:00.763Z,22.69
2022-08-09T22:38:30.136Z,22.71
2022-08-09T22:40:58.517Z,22.70
2022-08-09T22:44:00.524Z,22.66
2022-08-09T22:48:13.937Z,22.62
2022-08-09T22:49:05.526Z,22.55
2022-08-09T22:51:38.107Z,22.51
2022-08-09T22:54:08.263Z,22.49
2022-08-09T22:56:41.512Z,22.56
2022-08-09T22:59:55.400Z,22.53
2022-08-09T23:01:55.467Z,22.51
2022-08-09T23:04:22.150Z,22.51
2022-08-09T23:07:11.445Z,22.47
2022-08-09T23:09:40.840Z,22.44
2022-08-09T23:12:07.611Z,22.43
2022-08-09T23:14:41.671Z,22.43
2022-08-09T23:17:09.629Z,22.46
2022-08-09T23:20:01.026Z,22.47
2022-08-09T23:22:23.251Z,22.46
2022-08-09T23:24:49.988Z,22.45
2022-08-09T23:27:16.691Z,22.42
2022-08-09T23:29:43.307Z,22.43
2022-08-09T23:32:10.007Z,22.37
2022-08-09T23:34:36.848Z,22.40
2022-08-09T23:37:04.461Z,22.37
2022-08-09T23:39:31.180Z,22.36
2022-08-09T23:41:57.881Z,22.33
2022-08-09T23:44:24.543Z,22.31
2022-08-09T23:46:56.002Z,22.31
2022-08-09T23:49:25.652Z,22.33
2022-08-09T23:51:53.545Z,22.32
2022-08-09T23:54:20.978Z,22.27
2022-08-09T23:56:55.867Z,22.21
2022-08-09T23:59:24.818Z,22.28
